Aérodrome :
LOGIN :

S'inscrire | Disclaimer

   EN    FR    IT 

 










Légende :    VFR   VFR Marginal   IFR   IFR Intensif   IFR Très Intensif
Visi : 
Plafond : 
>= 8 km
>= 3000ft
5 à 8 km
1000 à 3000 ft
1500m à 5 km
500 à 1000 ft
800 à 1500m
200 à 500 ft
< 800m
< 200 ft
Symboles :   Orages  Brouillard  Fortes neiges  Fortes précipitations  Vent > 20 kt
SIGMETs :   Divers  Orages  Givrage  Turbulence  Onde Orograph.  Cendres Volcan.







- Altitude de l'aérodrome : 776 ft
- Code IATA : RMS


ETAR - Ramstein Air Base

DERNIER METAR :
  • 011732Z 23014G21KT 9999 -RA BKN016 OVC022 06/05 A2967 RMK AO2A RAE03UPB32 $

METARs EXPIRÉS :
  • 011726Z 22007G16KT 9999 BKN016 OVC022 06/06 A2967 RMK AO2A RAE03 $
  • 011719Z 22006KT 9999 BKN018 OVC023 06/06 A2967 RMK AO2A RAE03 $
  • 011658Z 23014G22KT 9999 -RA BKN015 BKN021 OVC025 06/06 A2968 RMK AO2A CIG 015V023 SLP060 P0005 T00590055 $
  • 011558Z 23012G18KT 9999 -RA BKN020 OVC045 06/05 A2970 RMK AO2A RAE1458RAB06 CIG 020V025 SLP068 P0006 T00590052 $
  • 011537Z AUTO VRB05KT 9999 -RA SCT016 OVC024 06/06 A2970 RMK AO2 RAE1458UPB1458E06RAB06 CIG 017V024
  • 011526Z COR 23010G15KT 9999 -RA SCT018 OVC023 06/06 A2970 RMK AO2 RAE1458RAB06 CIG 018V024 BKN V SCT COR 1542
  • 011524Z AUTO 23004KT 9999 -RA SCT018 OVC023 06/06 A2970 RMK AO2 RAE1458UPB1458E06RAB06 CIG 018V024 CIG 016 RWY08 $
  • 011518Z 23006KT 9999 -RA BKN018 OVC024 06/06 A2970 RMK AO2A RAE1458RAB06 CIG 018V024 BKN V SCT
  • 011458Z 22009G15KT 9999 -RA SCT017 OVC024 07/05 A2970 RMK AO2A RAB27 CIG 018 RWY08 SLP067 P0002 60002 T00680053 55001 $
  • 011434Z 22010G18KT 9999 -RA FEW022 OVC045 08/05 A2969 RMK AO2A RAB27 BKN V FEW

TAF AMD TAF ETAR
Valide du 01 à 11h jusqu'au 02 à 16h UTC


011151Z 0111/0216 24015G25KT 8000 -SHRA BKN030 610309 611201 510003 QNH2960INS
TEMPO 0111/0116 22010G15KT
BECMG 0116/0117 23015G25KT 8000 -RA OVC012 620209 621107 510003 QNH2956INS
BECMG 0119/0120 22020G35KT 8000 -RA OVC007 620209 621107 540004 QNH2954INS
BECMG 0200/0201 25015G25KT 9999 NSW BKN010 620209 621103 540004 QNH2954INS
BECMG 0203/0204 26015G25KT 9999 BKN030 620309 621201 510003 QNH2954INS
BECMG 0209/0210 26015G25KT 9999 SCT030 510003 QNH2970INS TX10/0200Z TN01/0207Z
Pas de NOTAMs connus pour ce terrain.



MET'MAP, la Météo Aéronautique d'un coup d'oeil ! - Copyright ORBIFLY Décembre 2007 - Disclaimer

ORBIFLY MET'MAP TEAM :

Programmation & Développement : Alexandra Zaïnal
Conception & Développement : Baudouin d'Aumeries
Co-Programmation & Développement : Marc-Olivier Méhu
Soutien technique & logistique : Manuel Goepfert

Contact : metmap@orbifly.com




SOURCES & CREDITS :

   NOAA